»·PEaware :: SWA3567 KSMF-KSAN

SWA3567 :: KSMF-KSAN

FLIGHT INFORMATION

Flight Status: Arrived
Operator:
Southwest Airlines
More flights by this operator :: More flights under this callsign
Pilot: Aundrey S. (17120)
Aircraft: BOEING 737-800
(B738)
More flights by this aircraft type
Origin: KSMF Sacramento Intl
United States
Destination: KSAN San Diego Intl-Lindbergh
United States
More flights between these airports :: More routes between these airports
Route: +FTHIL2 FRA EHF HUULK COMIX1
File this flight plan on PilotEdge
Remarks:
Altitude:
(Current/Filed)
37,000ft
Speed:
(Current/Filed)
450kts
Departed: 13-Jan-18 06:22 PM
Arrived: 13-Jan-18 07:35 PM
Distance/Time
Traveled:
417nm/1:13
Distance/Time
To Go:
Arrived

Flight Plot

Page will automatically refresh every two minutes.

Flight plan parsing failed; only flown route is shown


Map Options




Map Legend


Flown Route
Filed Route
Departure Airport
Arrival Airport
Navaid (VOR, NDB)
Fix

Horizontal Profiles

Position Reports

Time Latitude Longitude Heading Altitude Ground
Speed
13-Jan-18 17:40 38.695112 -121.595122 46 27ft 0kts
13-Jan-18 17:41 38.695112 -121.595122 46 27ft 0kts
13-Jan-18 17:42 38.695112 -121.595122 46 27ft 0kts
13-Jan-18 17:43 38.695112 -121.595122 46 27ft 0kts
13-Jan-18 17:44 38.695112 -121.595122 46 27ft 0kts
13-Jan-18 17:45 38.695112 -121.595122 46 27ft 0kts
13-Jan-18 17:46 38.695112 -121.595122 46 27ft 0kts
13-Jan-18 17:47 38.695112 -121.595122 46 27ft 0kts
13-Jan-18 17:48 38.695112 -121.595122 46 27ft 0kts
13-Jan-18 17:49 38.695112 -121.595122 46 27ft 0kts
13-Jan-18 17:50 38.695112 -121.595122 46 27ft 0kts
13-Jan-18 17:51 38.695112 -121.595122 46 27ft 0kts
13-Jan-18 17:52 38.695112 -121.595122 46 27ft 0kts
13-Jan-18 17:53 38.695112 -121.595122 46 27ft 0kts
13-Jan-18 17:54 38.695112 -121.595122 46 27ft 0kts
13-Jan-18 17:55 38.695112 -121.595122 46 27ft 0kts
13-Jan-18 17:56 38.695112 -121.595122 46 27ft 0kts
13-Jan-18 17:57 38.695112 -121.595122 46 27ft 0kts
13-Jan-18 17:58 38.695112 -121.595122 46 27ft 0kts
13-Jan-18 17:59 38.695112 -121.595122 46 27ft 0kts
13-Jan-18 18:00 38.695112 -121.595122 46 27ft 0kts
13-Jan-18 18:01 38.695112 -121.595122 46 27ft 0kts
13-Jan-18 18:02 38.695112 -121.595122 46 27ft 0kts
13-Jan-18 18:03 38.695112 -121.595122 46 27ft 0kts
13-Jan-18 18:04 38.695112 -121.595122 46 27ft 0kts
13-Jan-18 18:05 38.695112 -121.595122 46 27ft 0kts
13-Jan-18 18:06 38.695112 -121.595122 46 27ft 0kts
13-Jan-18 18:07 38.695112 -121.595122 46 27ft 0kts
13-Jan-18 18:08 38.695112 -121.595122 46 27ft 0kts
13-Jan-18 18:09 38.695112 -121.595122 46 27ft 0kts
13-Jan-18 18:10 38.694436 -121.595522 322 27ft 3kts
13-Jan-18 18:11 38.694374 -121.595453 316 27ft 0kts
13-Jan-18 18:12 38.694374 -121.595453 316 27ft 0kts
13-Jan-18 18:13 38.694374 -121.595453 316 27ft 0kts
13-Jan-18 18:14 38.694374 -121.595453 316 27ft 0kts
13-Jan-18 18:15 38.694374 -121.595453 316 27ft 0kts
13-Jan-18 18:16 38.694374 -121.595453 316 27ft 0kts
13-Jan-18 18:17 38.694374 -121.595453 316 27ft 0kts
13-Jan-18 18:18 38.694374 -121.595453 316 27ft 0kts
13-Jan-18 18:19 38.694784 -121.595864 333 27ft 10kts
13-Jan-18 18:20 38.696186 -121.595973 0 27ft 0kts
13-Jan-18 18:21 38.697012 -121.597387 270 27ft 13kts
13-Jan-18 18:22 38.700755 -121.598576 0 27ft 18kts
13-Jan-18 18:23 38.705349 -121.598492 0 27ft 21kts
13-Jan-18 18:24 38.707196 -121.599603 269 27ft 0kts
13-Jan-18 18:25 38.707196 -121.599603 269 27ft 0kts
13-Jan-18 18:26 38.707196 -121.599603 269 27ft 0kts
13-Jan-18 18:27 38.706406 -121.601092 183 27ft 13kts
13-Jan-18 18:28 38.679972 -121.601734 182 748ft 202kts
13-Jan-18 18:29 38.635483 -121.550147 122 3666ft 259kts
13-Jan-18 18:30 38.595915 -121.471384 121 7579ft 275kts
13-Jan-18 18:31 38.553437 -121.387063 120 10852ft 306kts
13-Jan-18 18:32 38.506509 -121.294169 120 14291ft 316kts
13-Jan-18 18:33 38.458192 -121.198625 123 17482ft 336kts
13-Jan-18 18:34 38.405131 -121.094080 125 20017ft 373kts
13-Jan-18 18:35 38.346514 -120.979146 125 22764ft 398kts
13-Jan-18 18:36 38.284732 -120.858372 125 25450ft 417kts
13-Jan-18 18:37 38.220474 -120.733234 126 28105ft 428kts
13-Jan-18 18:38 38.154771 -120.605793 126 30471ft 438kts
13-Jan-18 18:39 38.087888 -120.476554 126 32654ft 443kts
13-Jan-18 18:40 38.018014 -120.347177 129 34473ft 450kts
13-Jan-18 18:41 37.944452 -120.221160 142 36411ft 440kts
13-Jan-18 18:42 37.843089 -120.140774 154 37260ft 449kts
13-Jan-18 18:43 37.732519 -120.059265 154 37264ft 464kts
13-Jan-18 18:44 37.621605 -119.977460 154 37264ft 463kts
13-Jan-18 18:45 37.510873 -119.895747 154 37238ft 463kts
13-Jan-18 18:46 37.399963 -119.813861 154 37239ft 463kts
13-Jan-18 18:47 37.289002 -119.731894 154 37239ft 464kts
13-Jan-18 18:48 37.178084 -119.649916 154 37240ft 464kts
13-Jan-18 18:49 37.063482 -119.582051 171 37258ft 452kts
13-Jan-18 18:50 36.941513 -119.545184 171 37241ft 452kts
13-Jan-18 18:51 36.821331 -119.508264 171 37242ft 452kts
13-Jan-18 18:52 36.699378 -119.470796 171 37242ft 452kts
13-Jan-18 18:53 36.578120 -119.433537 171 37242ft 452kts
13-Jan-18 18:54 36.456177 -119.396061 171 37243ft 452kts
13-Jan-18 18:55 36.334294 -119.358602 171 37243ft 453kts
13-Jan-18 18:56 36.213006 -119.321312 171 37234ft 453kts
13-Jan-18 18:57 36.091282 -119.283889 171 37261ft 453kts
13-Jan-18 18:58 35.967812 -119.245911 170 37257ft 457kts
13-Jan-18 18:59 35.847749 -119.209004 170 37263ft 457kts
13-Jan-18 19:00 35.724797 -119.171189 170 37237ft 457kts
13-Jan-18 19:01 35.604657 -119.134236 170 37236ft 457kts
13-Jan-18 19:02 35.481691 -119.095608 164 37224ft 461kts
13-Jan-18 19:03 35.364596 -119.030826 159 37237ft 464kts
13-Jan-18 19:04 35.247256 -118.966027 159 37238ft 465kts
13-Jan-18 19:05 35.131662 -118.902166 159 37340ft 465kts
13-Jan-18 19:06 35.013714 -118.836984 159 37347ft 466kts
13-Jan-18 19:07 34.896596 -118.772239 159 37347ft 466kts
13-Jan-18 19:08 34.780105 -118.707826 159 37339ft 467kts
13-Jan-18 19:09 34.662151 -118.642581 158 37320ft 467kts
13-Jan-18 19:10 34.545812 -118.571499 152 37325ft 471kts
13-Jan-18 19:11 34.433501 -118.491710 152 37322ft 470kts
13-Jan-18 19:12 34.320855 -118.412097 152 36767ft 474kts
13-Jan-18 19:13 34.212464 -118.335425 152 35412ft 469kts
13-Jan-18 19:14 34.100392 -118.256116 152 33158ft 470kts
13-Jan-18 19:15 33.988721 -118.177075 152 30905ft 472kts
13-Jan-18 19:16 33.879450 -118.099680 151 28631ft 454kts
13-Jan-18 19:17 33.772503 -118.027386 153 26330ft 435kts
13-Jan-18 19:18 33.668953 -117.959029 153 24034ft 418kts
13-Jan-18 19:19 33.568906 -117.892931 152 22135ft 408kts
13-Jan-18 19:20 33.471437 -117.826993 151 20292ft 399kts
13-Jan-18 19:21 33.388578 -117.742601 134 18601ft 392kts
13-Jan-18 19:22 33.313452 -117.650914 134 16901ft 381kts
13-Jan-18 19:23 33.237030 -117.566521 145 15201ft 368kts
13-Jan-18 19:24 33.156777 -117.500151 144 13487ft 339kts
13-Jan-18 19:25 33.081951 -117.437593 144 11777ft 321kts
13-Jan-18 19:26 33.010732 -117.377977 145 10068ft 305kts
13-Jan-18 19:27 32.948324 -117.325689 145 8453ft 255kts
13-Jan-18 19:28 32.891058 -117.277876 144 7368ft 253kts
13-Jan-18 19:29 32.833729 -117.230246 143 7184ft 253kts
13-Jan-18 19:30 32.802106 -117.161050 101 7183ft 250kts
13-Jan-18 19:31 32.789206 -117.079487 101 7113ft 244kts
13-Jan-18 19:32 32.777778 -117.001543 101 5869ft 243kts
13-Jan-18 19:33 32.738864 -116.948327 176 4319ft 225kts
13-Jan-18 19:34 32.681620 -116.951324 181 3783ft 197kts
13-Jan-18 19:35 32.657147 -117.000780 293 3734ft 212kts
13-Jan-18 19:36 32.706562 -117.019813 356 2913ft 194kts
13-Jan-18 19:37 32.742917 -117.053359 264 2768ft 166kts
13-Jan-18 19:38 32.723834 -117.097706 246 2436ft 155kts
13-Jan-18 19:39 32.723463 -117.148227 285 1130ft 150kts
13-Jan-18 19:40 32.733786 -117.190733 286 21ft 64kts
13-Jan-18 19:41 32.734280 -117.194742 251 21ft 0kts
13-Jan-18 19:42 32.734283 -117.194731 251 21ft 0kts
13-Jan-18 19:43 32.733898 -117.195176 155 20ft 3kts
13-Jan-18 19:44 32.732297 -117.195000 257 21ft 2kts
13-Jan-18 19:45 32.732591 -117.195537 311 20ft 0kts
13-Jan-18 19:46 32.732591 -117.195537 311 20ft 0kts
13-Jan-18 19:47 32.732591 -117.195537 311 20ft 0kts
13-Jan-18 19:48 32.732591 -117.195537 311 20ft 0kts

Navigation Log

Ident Type
Flight plan parsing failed, navigation log unavailable